CheckWX is a tool to help pilots better visualize weather data.  It is not intended as a substitute for an official pre-flight weather briefing.

19:56:19 UTC

KHUF TAF
Terre Haute Regional Airport
Terre Haute, Indiana, USA
KHUF 251720Z 2518/2618 23010KT P6SM FEW035 FM260000 21008KT P6SM FEW250

Jun-25@
18:00 UTC

Jun-25 @ 18:00 UTC

Jun-26@
00:00 UTC

Jun-26 @ 00:00 UTC

KHUF 251720Z 2518/2618 23010KT P6SM FEW035
Wind
  • 230° at 10 KTS
Cloud Levels
  • Few at 3,500' AGL

Jun-26@
00:00 UTC

Jun-26 @ 00:00 UTC

Jun-26@
18:00 UTC

Jun-26 @ 18:00 UTC

FM260000 21008KT P6SM FEW250

From

From Standard forecast or significant change

Wind
  • 210° at 8 KTS
Cloud Levels
  • Few at 25,000' AGL